Homestead Gen Aviation, FL

9:19 PM EST on December 10, 2016 (GMT -0500)
Farmland Estates | | Change Station

Elev 8 ft 25.47 °N, 80.52 °W | Updated 1 second ago

Rain
Rain
70.2 °F
Feels Like 70.2 °F
N
3.0
Wind Variable Wind from NE
Gusts 5.0 mph

Today
High -- | Low -- °F
--% Chance of Precip.
Yesterday
High -- | Low -- °F
Precip. -- in
Pressure 30.19 in
Visibility 2.5 miles
Clouds Overcast 1900 ft
Dew Point 68 °F
Humidity 94%
Rainfall 0.18 in
Snow Depth Not available.
6:57 AM 5:32 PM
Waxing Gibbous, 88% visible
SPECI KHST 110213Z AUTO 03018KT 2 1/2SM R06/3500FT +RA BR OVC019 22/22 A3019 RMK AO2 VIS 2 1/2V3
Pressure 30.19 in
Visibility 2.5 miles
Clouds Overcast 1900 ft
Dew Point 68 °F
Humidity 94%
Rainfall 0.18 in
Snow Depth Not available.
6:57 AM 5:32 PM
Waxing Gibbous, 88% visible
SPECI KHST 110213Z AUTO 03018KT 2 1/2SM R06/3500FT +RA BR OVC019 22/22 A3019 RMK AO2 VIS 2 1/2V3

10-Day Weather Forecast

Almanac

Astronomy

Dec. 10, 2016 Rise Set
Actual Time
Civil Twilight
Nautical Twilight
Astronomical Twilight
Moon
Length of Visible Light
Length of Day
Tomorrow will be .
, % of the Moon is Illuminated

Today's Extremes

State Highs State Lows

Community

WunderPhotos

Upload Photos

1,956,690 photos uploaded!

WunderBlog® & News

Nearby

Air Quality

  Air Quality AQ Index Pollutant
Not available.

Snow Depth

Station Depth Elevation

Earthquake Activity

City Distance Mag. Time & Date
Minimum magnitude displayed is 2.5.

Coastal Water Temperatures

Place Temperature

Stations

Nearby Weather Stations

Station Location Temp. Windchill Dew Point Humidity Wind Precip. Elev Updated Type
                   

Watches & Warnings

There are currently no watches in effect.